createdAt,value
2018-09-12T03:35:28.788Z,15.50
2018-09-12T03:37:56.883Z,15.50
2018-09-12T03:40:25.011Z,15.50
2018-09-12T03:42:53.088Z,15.60
2018-09-12T03:45:21.176Z,15.70
2018-09-12T03:47:49.264Z,15.70
2018-09-12T03:50:17.437Z,15.70
2018-09-12T03:52:45.510Z,15.60
2018-09-12T03:55:13.568Z,15.60
2018-09-12T03:57:41.684Z,15.50
2018-09-12T04:00:10.208Z,15.40
2018-09-12T04:02:38.303Z,15.20
2018-09-12T04:05:06.896Z,15.00
2018-09-12T04:07:34.963Z,14.90
2018-09-12T04:10:03.063Z,14.90
2018-09-12T04:12:31.152Z,14.90
2018-09-12T04:14:59.225Z,14.90
2018-09-12T04:17:30.767Z,14.90
2018-09-12T04:19:58.948Z,14.90
2018-09-12T04:22:27.021Z,14.90
2018-09-12T04:24:55.093Z,14.90
2018-09-12T04:27:23.172Z,14.90
2018-09-12T04:29:51.448Z,14.90
2018-09-12T04:32:19.528Z,14.90
2018-09-12T04:34:47.600Z,15.00
2018-09-12T04:37:15.252Z,15.00
2018-09-12T04:39:43.383Z,15.00
2018-09-12T04:42:11.448Z,15.20
2018-09-12T04:44:39.597Z,15.20
2018-09-12T04:47:07.676Z,15.30
2018-09-12T04:49:35.801Z,15.20
2018-09-12T04:52:03.872Z,15.10
2018-09-12T04:54:32.020Z,15.10
2018-09-12T04:57:00.097Z,15.20
2018-09-12T04:59:28.185Z,15.30
2018-09-12T05:01:56.265Z,15.40
2018-09-12T05:04:24.430Z,15.40
2018-09-12T05:06:52.596Z,15.40
2018-09-12T05:09:20.677Z,15.40
2018-09-12T05:11:48.770Z,15.30
2018-09-12T05:14:16.849Z,15.40
2018-09-12T05:16:45.119Z,15.50
2018-09-12T05:19:13.148Z,15.50
2018-09-12T05:21:41.224Z,15.40
2018-09-12T05:24:08.960Z,15.50
2018-09-12T05:26:37.059Z,15.50
2018-09-12T05:29:05.392Z,15.50
2018-09-12T05:31:33.613Z,15.40
2018-09-12T05:34:01.753Z,15.40
2018-09-12T05:36:29.980Z,15.40
2018-09-12T05:38:58.135Z,15.40
2018-09-12T05:41:26.212Z,15.50
2018-09-12T05:43:54.641Z,15.40
2018-09-12T05:46:23.687Z,15.40
2018-09-12T05:48:51.745Z,15.50
2018-09-12T05:51:19.829Z,15.50
2018-09-12T05:53:47.908Z,15.50
2018-09-12T05:56:15.981Z,15.50
2018-09-12T05:58:44.148Z,15.50
2018-09-12T06:01:12.217Z,15.50
2018-09-12T06:03:40.285Z,15.50
2018-09-12T06:06:08.356Z,15.50
2018-09-12T06:08:36.444Z,15.40
2018-09-12T06:11:04.525Z,15.50
2018-09-12T06:13:32.681Z,15.50
2018-09-12T06:16:00.777Z,15.70
2018-09-12T06:18:28.868Z,15.60
2018-09-12T06:20:57.148Z,15.50
2018-09-12T06:23:26.741Z,15.70
2018-09-12T06:25:54.825Z,16.00
2018-09-12T06:28:22.907Z,16.10
2018-09-12T06:30:51.067Z,16.10
2018-09-12T06:33:19.102Z,16.20
2018-09-12T06:35:47.163Z,16.30
2018-09-12T06:38:15.278Z,16.40
2018-09-12T06:40:43.358Z,17.10
2018-09-12T06:43:11.436Z,17.50
2018-09-12T15:00:24.233Z,29.60
2018-09-12T15:02:51.847Z,29.60
2018-09-12T15:05:20.000Z,29.50
2018-09-12T15:07:49.801Z,29.60
2018-09-12T15:10:18.202Z,29.60
2018-09-12T15:12:46.797Z,29.60
2018-09-12T15:15:15.201Z,29.60
2018-09-12T15:17:44.339Z,29.70
2018-09-12T15:20:12.607Z,29.50
2018-09-12T15:22:41.092Z,29.50
2018-09-12T15:25:10.444Z,29.50
2018-09-12T15:27:39.954Z,29.60
2018-09-12T15:30:08.268Z,29.50
2018-09-12T15:32:36.392Z,29.40
2018-09-12T15:35:04.484Z,29.40
2018-09-12T15:37:32.568Z,29.40
2018-09-12T15:40:00.732Z,29.40
2018-09-12T15:42:29.241Z,29.40
2018-09-12T15:44:57.422Z,29.30
2018-09-12T15:47:25.517Z,29.20
2018-09-12T15:49:53.600Z,29.10
2018-09-12T15:52:21.707Z,28.90
2018-09-12T15:54:49.908Z,28.80
2018-09-12T15:57:17.993Z,28.80
2018-09-12T15:59:46.104Z,28.70
2018-09-12T16:02:14.304Z,28.70
2018-09-12T16:04:42.381Z,28.60
2018-09-12T16:07:10.448Z,28.50
2018-09-12T16:09:38.598Z,28.40
2018-09-12T16:12:06.723Z,28.40
2018-09-12T16:14:34.845Z,28.30
2018-09-12T16:17:02.943Z,28.20
2018-09-12T16:19:31.005Z,28.10
2018-09-12T16:21:59.266Z,28.10
2018-09-12T16:24:27.363Z,28.10
2018-09-12T16:26:54.973Z,28.00
2018-09-12T16:29:23.094Z,27.80
2018-09-12T16:31:51.170Z,27.80
2018-09-12T16:34:19.238Z,27.70
2018-09-12T16:36:47.414Z,27.60
2018-09-12T16:39:15.464Z,27.50
2018-09-12T16:41:43.739Z,27.40
2018-09-12T16:44:11.839Z,27.40
2018-09-12T16:46:39.917Z,27.20
2018-09-12T16:49:08.029Z,27.10
2018-09-12T16:51:36.158Z,27.00
2018-09-12T16:54:04.180Z,27.00
2018-09-12T16:56:32.365Z,26.80
2018-09-12T16:59:00.409Z,26.70
2018-09-12T17:01:28.500Z,26.70
2018-09-12T17:03:56.597Z,26.70
2018-09-12T17:06:24.791Z,26.60
2018-09-12T17:08:52.844Z,26.50
2018-09-12T17:11:21.806Z,26.40
2018-09-12T17:13:49.992Z,26.30
2018-09-12T17:16:18.068Z,26.10
2018-09-12T17:18:46.136Z,26.00
2018-09-12T17:21:14.247Z,25.80
2018-09-12T17:23:42.322Z,25.70
2018-09-12T17:26:09.915Z,25.60
2018-09-12T17:28:37.993Z,25.60
2018-09-12T17:31:06.096Z,25.50
2018-09-12T17:33:34.168Z,25.40
2018-09-12T17:36:02.267Z,25.30
2018-09-12T17:38:30.364Z,25.20
2018-09-12T17:40:58.450Z,25.10
2018-09-12T17:43:26.564Z,25.00
2018-09-12T17:45:54.673Z,24.90
2018-09-12T17:48:22.872Z,24.90
2018-09-12T17:50:51.254Z,24.90
2018-09-12T17:53:19.342Z,24.80
2018-09-12T17:55:47.540Z,24.90
2018-09-12T17:58:15.529Z,24.90
2018-09-12T18:00:43.601Z,24.80
2018-09-12T18:03:11.676Z,24.70
2018-09-12T18:05:39.811Z,24.50
2018-09-12T18:08:07.865Z,24.50
2018-09-12T18:10:35.483Z,24.50
2018-09-12T18:13:03.587Z,24.50
2018-09-12T18:15:31.713Z,24.50
2018-09-12T18:17:59.802Z,24.50
2018-09-12T18:20:27.960Z,24.40
2018-09-12T18:22:56.044Z,24.40
2018-09-12T18:25:24.224Z,24.40
2018-09-12T18:27:51.884Z,24.50
2018-09-12T18:30:21.281Z,24.40
2018-09-12T18:32:49.365Z,24.30
2018-09-12T18:35:17.461Z,24.20
2018-09-12T18:37:45.575Z,24.20
2018-09-12T18:40:13.688Z,24.10
2018-09-12T18:42:41.857Z,23.90
2018-09-12T18:45:09.972Z,24.00
2018-09-12T18:47:38.076Z,23.90
2018-09-12T18:50:06.184Z,23.80
2018-09-12T18:52:34.294Z,23.80
2018-09-12T18:55:02.392Z,23.70
2018-09-12T18:57:30.494Z,23.90
2018-09-12T18:59:58.808Z,23.90
2018-09-12T19:02:27.202Z,23.80
2018-09-12T19:04:55.319Z,23.80
2018-09-12T19:07:23.427Z,23.80
2018-09-12T19:09:51.483Z,23.80
2018-09-12T19:12:19.565Z,23.70
2018-09-12T19:14:48.235Z,23.70
2018-09-12T19:17:16.397Z,23.60
2018-09-12T19:19:44.469Z,23.50
2018-09-12T19:22:12.530Z,23.50
2018-09-12T19:24:40.614Z,23.40
2018-09-12T19:27:08.768Z,23.40
2018-09-12T19:29:36.960Z,23.30
2018-09-12T19:32:05.053Z,23.30
2018-09-12T19:34:33.130Z,23.50
2018-09-12T19:37:01.208Z,23.40
2018-09-12T19:39:29.362Z,23.30
2018-09-12T19:41:57.473Z,23.00
2018-09-12T19:44:25.528Z,22.80
2018-09-12T19:46:53.616Z,22.60
2018-09-12T19:49:21.696Z,22.50
2018-09-12T19:51:50.120Z,22.40
2018-09-12T19:54:18.276Z,22.30
2018-09-12T19:56:46.358Z,22.20
2018-09-12T19:59:14.511Z,22.30
2018-09-12T20:01:42.690Z,22.40
2018-09-12T20:04:10.792Z,22.50
2018-09-12T20:06:38.964Z,22.60
2018-09-12T20:09:08.909Z,22.70
2018-09-12T20:11:37.000Z,22.70
2018-09-12T20:14:05.088Z,22.80
2018-09-12T20:16:33.277Z,22.80
2018-09-12T20:19:01.340Z,22.80
2018-09-12T20:21:29.447Z,22.70
2018-09-12T20:23:57.695Z,23.00
2018-09-12T20:26:25.616Z,23.10
2018-09-12T20:28:53.713Z,23.10
2018-09-12T20:31:21.382Z,22.90
2018-09-12T20:33:49.548Z,22.80
2018-09-12T20:36:17.769Z,22.60
2018-09-12T20:38:46.973Z,22.20
2018-09-12T20:41:15.055Z,21.90
2018-09-12T20:43:43.175Z,21.50
2018-09-12T20:46:11.475Z,21.00
2018-09-12T20:48:39.569Z,20.70
2018-09-12T20:51:07.675Z,20.50
2018-09-12T20:53:35.744Z,20.30
2018-09-12T20:56:03.832Z,20.20
2018-09-12T20:58:31.959Z,20.10
2018-09-12T21:01:00.169Z,20.00
2018-09-12T21:03:28.252Z,20.00
2018-09-12T21:05:56.352Z,20.00
2018-09-12T21:08:24.456Z,19.90
2018-09-12T21:10:52.601Z,20.00
2018-09-12T21:13:20.708Z,20.00
2018-09-12T21:15:48.817Z,20.10
2018-09-12T21:18:17.000Z,20.20
2018-09-12T21:20:45.029Z,20.20
2018-09-12T21:23:13.104Z,20.20
2018-09-12T21:25:41.187Z,20.20
2018-09-12T21:28:09.281Z,20.40
2018-09-12T21:30:36.905Z,20.20
2018-09-12T21:33:05.309Z,20.30
2018-09-12T21:35:33.420Z,20.30
2018-09-12T21:38:01.626Z,20.30
2018-09-12T21:40:30.910Z,20.20
2018-09-12T21:42:59.013Z,20.10
2018-09-12T21:45:27.092Z,19.80
2018-09-12T21:47:55.189Z,19.60
2018-09-12T21:50:24.004Z,19.50
2018-09-12T21:52:52.104Z,19.40
2018-09-12T21:55:20.185Z,19.60
2018-09-12T21:57:48.268Z,19.50
2018-09-12T22:00:16.347Z,19.50
2018-09-12T22:02:44.443Z,19.30
2018-09-12T22:05:12.537Z,19.20
2018-09-12T22:07:40.617Z,19.00
2018-09-12T22:10:08.700Z,18.90
2018-09-12T22:12:36.775Z,18.80
2018-09-12T22:15:04.873Z,18.70
2018-09-12T22:17:32.957Z,18.70
2018-09-12T22:20:01.101Z,18.60
2018-09-12T22:22:29.163Z,18.60
2018-09-12T22:24:57.257Z,18.60
2018-09-12T22:27:25.364Z,18.60
2018-09-12T22:29:53.084Z,18.60
2018-09-12T22:32:21.160Z,18.60
2018-09-12T22:34:49.251Z,18.60
2018-09-12T22:37:17.457Z,18.60
2018-09-12T22:39:45.547Z,18.60
2018-09-12T22:42:13.628Z,18.60
2018-09-12T22:44:41.734Z,18.50
